createdAt,value
2023-05-12T00:01:16.785Z,3.40
2023-05-12T00:03:44.140Z,3.70
2023-05-12T00:06:11.519Z,3.60
2023-05-12T00:08:38.435Z,3.70
2023-05-12T00:11:05.316Z,3.50
2023-05-12T00:13:32.158Z,3.90
2023-05-12T00:15:59.411Z,5.10
2023-05-12T00:18:28.286Z,4.30
2023-05-12T00:20:55.651Z,4.40
2023-05-12T00:23:22.929Z,4.40
2023-05-12T00:25:50.130Z,3.90
2023-05-12T00:28:18.396Z,4.00
2023-05-12T00:30:45.776Z,4.00
2023-05-12T00:33:12.949Z,4.20
2023-05-12T00:35:39.853Z,4.30
2023-05-12T00:38:06.624Z,4.30
2023-05-12T00:40:33.373Z,4.40
2023-05-12T00:43:00.285Z,4.00
2023-05-12T00:45:29.546Z,3.70
2023-05-12T00:47:56.781Z,3.70
2023-05-12T00:50:24.936Z,4.20
2023-05-12T00:52:51.702Z,3.90
2023-05-12T00:55:18.578Z,3.60
2023-05-12T00:57:45.525Z,4.00
2023-05-12T01:00:14.139Z,4.60
2023-05-12T01:02:42.183Z,4.30
2023-05-12T01:05:10.143Z,4.00
2023-05-12T01:07:37.929Z,3.80
2023-05-12T01:10:05.453Z,4.10
2023-05-12T01:12:34.821Z,4.20
2023-05-12T01:15:03.166Z,3.90
2023-05-12T01:17:33.418Z,4.00
2023-05-12T01:20:01.778Z,4.40
2023-05-12T01:22:31.351Z,4.10
2023-05-12T01:25:00.124Z,4.50
2023-05-12T01:27:28.957Z,4.20
2023-05-12T01:29:58.936Z,4.50
2023-05-12T01:32:26.484Z,4.30
2023-05-12T01:34:53.573Z,4.40
2023-05-12T01:37:20.700Z,4.30
2023-05-12T01:39:47.676Z,9.00
2023-05-12T01:42:18.599Z,6.70
2023-05-12T01:44:45.508Z,5.80
2023-05-12T01:47:12.289Z,5.20
2023-05-12T01:49:40.508Z,5.60
2023-05-12T01:52:10.876Z,5.30
2023-05-12T01:54:37.681Z,4.80
2023-05-12T01:57:05.411Z,5.30
2023-05-12T01:59:33.134Z,5.20
2023-05-12T02:02:00.850Z,5.30
2023-05-12T02:04:30.011Z,4.90
2023-05-12T02:06:57.090Z,5.20
2023-05-12T02:09:24.074Z,4.90
2023-05-12T02:11:51.236Z,5.20
2023-05-12T02:14:18.159Z,5.50
2023-05-12T02:16:45.426Z,5.30
2023-05-12T02:19:12.404Z,5.30
2023-05-12T02:21:39.403Z,5.50
2023-05-12T02:24:06.686Z,5.30
2023-05-12T02:26:35.034Z,4.60
2023-05-12T02:29:02.160Z,4.80
2023-05-12T02:31:29.053Z,5.20
2023-05-12T02:33:56.156Z,5.30
2023-05-12T02:36:23.161Z,5.00
2023-05-12T02:38:50.184Z,5.10
2023-05-12T02:41:17.269Z,4.80
2023-05-12T02:43:44.212Z,4.90
2023-05-12T02:46:11.275Z,5.00
2023-05-12T02:48:38.722Z,4.50
2023-05-12T02:51:05.889Z,5.80
2023-05-12T02:53:32.690Z,5.60
2023-05-12T02:55:59.485Z,5.50
2023-05-12T02:58:26.380Z,5.30
2023-05-12T03:01:03.168Z,5.40
2023-05-12T03:03:37.067Z,5.70
2023-05-12T03:06:04.779Z,6.20
2023-05-12T03:08:31.820Z,6.60
2023-05-12T03:10:58.854Z,5.90
2023-05-12T03:13:26.094Z,5.40
2023-05-12T03:15:52.862Z,5.80
2023-05-12T03:18:19.809Z,4.70
2023-05-12T03:20:47.121Z,4.80
2023-05-12T03:23:13.882Z,4.10
2023-05-12T03:25:40.675Z,4.20
2023-05-12T03:28:08.069Z,4.70
2023-05-12T03:30:35.053Z,4.90
2023-05-12T03:33:01.943Z,5.10
2023-05-12T03:35:28.979Z,4.70
2023-05-12T03:37:55.872Z,4.80
2023-05-12T03:40:22.931Z,4.60
2023-05-12T03:42:50.197Z,4.10
2023-05-12T03:45:18.049Z,4.50
2023-05-12T03:47:44.962Z,4.20
2023-05-12T03:50:12.833Z,6.10
2023-05-12T03:52:41.349Z,5.00
2023-05-12T03:55:09.312Z,5.80
2023-05-12T03:57:37.847Z,5.60
2023-05-12T04:00:05.861Z,4.20
2023-05-12T04:02:39.724Z,4.50
2023-05-12T04:05:08.651Z,4.80
2023-05-12T04:07:35.913Z,4.70
2023-05-12T04:10:03.221Z,4.50
2023-05-12T04:12:30.157Z,4.20
2023-05-12T04:14:57.637Z,5.30
2023-05-12T04:17:24.556Z,5.60
2023-05-12T04:19:53.578Z,5.00
2023-05-12T04:22:20.884Z,4.70
2023-05-12T04:24:48.428Z,6.30
2023-05-12T04:27:15.226Z,5.90
2023-05-12T04:29:42.124Z,6.00
2023-05-12T04:32:09.322Z,5.00
2023-05-12T04:34:36.478Z,3.90
2023-05-12T04:37:03.361Z,3.90
2023-05-12T04:39:30.256Z,3.80
2023-05-12T04:41:57.832Z,4.60
2023-05-12T04:44:24.944Z,4.30
2023-05-12T04:46:54.193Z,4.20
2023-05-12T04:49:21.198Z,3.70
2023-05-12T04:51:48.136Z,3.80
2023-05-12T04:54:15.046Z,4.00
2023-05-12T04:56:42.901Z,3.60
2023-05-12T04:59:09.855Z,4.20
2023-05-12T05:01:36.597Z,3.90
2023-05-12T05:04:03.855Z,3.80
2023-05-12T05:06:30.862Z,3.60
2023-05-12T05:08:58.496Z,4.70
2023-05-12T05:11:25.956Z,4.30
2023-05-12T05:13:52.731Z,3.80
2023-05-12T05:16:20.187Z,4.10
2023-05-12T05:18:47.812Z,4.40
2023-05-12T05:21:14.670Z,4.70
2023-05-12T05:23:41.803Z,4.70
2023-05-12T05:26:09.229Z,4.50
2023-05-12T05:28:36.640Z,4.60
2023-05-12T05:31:04.889Z,4.10
2023-05-12T05:33:32.329Z,4.70
2023-05-12T05:36:00.043Z,4.10
2023-05-12T05:38:27.522Z,3.60
2023-05-12T05:40:54.758Z,3.80
2023-05-12T05:43:23.466Z,3.80
2023-05-12T05:45:51.492Z,4.20
2023-05-12T05:48:20.045Z,4.10
2023-05-12T05:50:47.260Z,3.80
2023-05-12T05:53:14.347Z,4.00
2023-05-12T05:55:41.387Z,3.70
2023-05-12T05:58:08.649Z,3.70
2023-05-12T06:00:35.505Z,3.60
2023-05-12T06:03:02.477Z,4.00
2023-05-12T06:05:30.720Z,3.90
2023-05-12T06:07:57.504Z,3.90
2023-05-12T06:10:25.613Z,3.90
2023-05-12T06:12:52.533Z,3.50
2023-05-12T06:15:21.464Z,3.80
2023-05-12T06:17:49.715Z,3.70
2023-05-12T06:20:16.657Z,4.20
2023-05-12T06:22:45.305Z,3.80
2023-05-12T06:25:13.315Z,4.00
2023-05-12T06:27:40.166Z,4.30
2023-05-12T06:30:07.916Z,4.20
2023-05-12T06:32:34.823Z,4.40
2023-05-12T06:35:02.157Z,4.70
2023-05-12T06:37:29.090Z,4.30
2023-05-12T06:39:57.948Z,3.90
2023-05-12T06:42:26.759Z,4.20
2023-05-12T06:44:55.990Z,4.30
2023-05-12T06:47:22.799Z,4.60
2023-05-12T06:49:50.332Z,3.80
2023-05-12T06:52:17.218Z,4.40
2023-05-12T06:54:44.099Z,3.80
2023-05-12T06:57:10.963Z,3.60
2023-05-12T06:59:37.817Z,4.00
2023-05-12T07:02:04.873Z,3.50
2023-05-12T07:04:31.732Z,3.50
2023-05-12T07:06:58.856Z,3.70
2023-05-12T07:09:25.656Z,3.50
2023-05-12T07:11:52.495Z,3.20
2023-05-12T07:14:19.411Z,3.60
2023-05-12T07:16:46.900Z,3.30
2023-05-12T07:19:13.781Z,3.10
2023-05-12T07:21:40.939Z,3.40
2023-05-12T07:24:07.796Z,2.90
2023-05-12T07:26:34.667Z,3.40
2023-05-12T07:31:20.707Z,2.90
2023-05-12T07:33:48.036Z,3.20
2023-05-12T07:36:15.057Z,2.90
2023-05-12T07:38:44.842Z,2.90
2023-05-12T07:41:11.898Z,3.20
2023-05-12T07:43:38.880Z,2.90
2023-05-12T07:46:20.904Z,3.00
2023-05-12T07:48:47.952Z,3.20
2023-05-12T07:51:15.026Z,3.00
2023-05-12T07:53:41.985Z,3.20
2023-05-12T07:56:08.934Z,2.90
2023-05-12T07:58:35.871Z,3.10
2023-05-12T08:01:06.028Z,3.10
2023-05-12T08:03:33.621Z,4.40
2023-05-12T08:06:00.554Z,3.60
2023-05-12T08:08:27.392Z,3.10
2023-05-12T08:10:54.223Z,2.90
2023-05-12T08:13:21.121Z,3.20
2023-05-12T08:15:49.418Z,3.40
2023-05-12T08:18:16.256Z,3.10
2023-05-12T08:20:43.213Z,2.80
2023-05-12T08:23:10.045Z,3.00
2023-05-12T08:25:37.323Z,3.10
2023-05-12T08:28:04.619Z,4.60
2023-05-12T08:30:31.340Z,6.80
2023-05-12T08:32:58.274Z,3.20
2023-05-12T08:35:25.162Z,3.30
2023-05-12T08:37:52.804Z,3.10
2023-05-12T08:40:25.796Z,2.70
2023-05-12T08:43:13.772Z,3.30
2023-05-12T08:45:40.711Z,3.30
2023-05-12T08:48:11.458Z,3.10
2023-05-12T08:50:38.862Z,3.00
2023-05-12T08:53:05.767Z,3.10
2023-05-12T08:55:34.324Z,3.10
2023-05-12T08:58:03.059Z,3.50
2023-05-12T09:00:31.249Z,3.10
2023-05-12T09:02:59.480Z,3.00
2023-05-12T09:05:27.345Z,2.70
2023-05-12T09:07:55.331Z,2.90
2023-05-12T09:10:34.224Z,2.70
2023-05-12T09:13:37.958Z,2.70
2023-05-12T09:16:04.863Z,3.10
2023-05-12T09:18:44.495Z,3.20
2023-05-12T09:21:11.977Z,2.60
2023-05-12T09:23:38.834Z,2.60
2023-05-12T09:26:05.618Z,3.00
2023-05-12T09:28:39.014Z,2.40
2023-05-12T09:31:16.261Z,2.60
2023-05-12T09:33:43.075Z,2.80
2023-05-12T09:36:09.915Z,2.60
2023-05-12T09:38:36.760Z,2.40
2023-05-12T09:41:03.774Z,2.60
2023-05-12T09:43:32.231Z,2.50
2023-05-12T09:46:05.814Z,2.20
2023-05-12T09:48:33.289Z,2.30
2023-05-12T09:51:00.200Z,2.20
2023-05-12T09:53:27.242Z,2.60
2023-05-12T09:55:54.079Z,2.20
2023-05-12T09:58:21.052Z,2.30
2023-05-12T10:03:18.226Z,2.00
2023-05-12T10:05:56.668Z,1.80
2023-05-12T10:08:32.379Z,2.30
2023-05-12T10:10:59.857Z,2.30
2023-05-12T10:13:26.842Z,2.40
2023-05-12T10:15:55.997Z,2.30
2023-05-12T10:18:23.414Z,2.00
2023-05-12T10:20:50.276Z,2.60
2023-05-12T10:23:17.256Z,2.40
2023-05-12T10:25:44.151Z,2.40
2023-05-12T10:28:11.874Z,2.50
2023-05-12T10:30:39.345Z,2.20
2023-05-12T10:33:08.705Z,2.00
2023-05-12T10:35:36.443Z,2.30
2023-05-12T10:38:07.617Z,2.10
2023-05-12T10:40:34.393Z,2.50
2023-05-12T10:43:01.539Z,2.20
2023-05-12T10:45:28.399Z,2.50
2023-05-12T10:48:05.241Z,2.10
2023-05-12T10:50:32.052Z,2.40
2023-05-12T10:52:58.965Z,2.00
2023-05-12T10:55:37.023Z,2.20
2023-05-12T10:58:05.682Z,2.60
2023-05-12T11:00:33.070Z,2.10
2023-05-12T11:03:08.010Z,2.50
2023-05-12T11:05:37.782Z,2.30
2023-05-12T11:08:05.364Z,2.20
2023-05-12T11:10:33.568Z,2.20
2023-05-12T11:13:24.426Z,2.70
2023-05-12T11:15:56.869Z,2.20
2023-05-12T11:18:23.922Z,2.50
2023-05-12T11:20:55.238Z,2.10
2023-05-12T11:23:34.913Z,2.30
2023-05-12T11:26:20.207Z,2.10
2023-05-12T11:28:47.731Z,2.20
2023-05-12T11:31:21.369Z,1.80
2023-05-12T11:33:53.712Z,2.20
2023-05-12T11:36:25.599Z,2.00
2023-05-12T11:38:52.391Z,2.30
2023-05-12T11:41:26.268Z,2.20
2023-05-12T11:43:53.848Z,2.20
2023-05-12T11:46:27.658Z,2.10
2023-05-12T11:48:59.171Z,1.80
2023-05-12T11:53:53.454Z,2.00
2023-05-12T12:01:44.506Z,2.50
2023-05-12T12:04:11.324Z,2.80
2023-05-12T12:06:45.416Z,2.10
2023-05-12T12:09:12.536Z,2.50
2023-05-12T12:11:39.296Z,2.30
2023-05-12T12:14:06.247Z,2.50
2023-05-12T12:16:33.188Z,2.60
2023-05-12T12:19:00.259Z,2.30
2023-05-12T12:21:27.126Z,9.70
2023-05-12T12:23:54.096Z,2.20
2023-05-12T12:26:21.650Z,3.10
2023-05-12T12:28:48.862Z,2.10
2023-05-12T12:31:16.060Z,2.10
2023-05-12T12:33:43.086Z,2.40
2023-05-12T12:36:10.012Z,2.10
2023-05-12T12:38:36.907Z,2.20
2023-05-12T12:41:04.454Z,2.30
2023-05-12T12:43:31.260Z,2.50
2023-05-12T12:45:58.231Z,2.90
2023-05-12T12:48:26.707Z,2.40
2023-05-12T12:50:53.959Z,2.70
2023-05-12T12:53:20.974Z,2.50
2023-05-12T12:55:47.778Z,2.40
2023-05-12T12:58:14.569Z,2.40
2023-05-12T13:00:41.371Z,2.50
2023-05-12T13:03:08.368Z,2.40
2023-05-12T13:05:35.478Z,2.50
2023-05-12T13:08:02.299Z,2.40
2023-05-12T13:10:29.300Z,2.60
2023-05-12T13:12:56.191Z,2.50
2023-05-12T13:15:23.363Z,2.60
2023-05-12T13:17:50.422Z,2.00
2023-05-12T13:20:17.282Z,2.40
2023-05-12T13:22:44.819Z,2.30
2023-05-12T13:25:11.751Z,2.20
2023-05-12T13:27:38.705Z,2.40
2023-05-12T13:30:10.900Z,2.70
2023-05-12T13:32:39.638Z,2.30
2023-05-12T13:35:06.848Z,2.50
2023-05-12T13:37:33.664Z,2.20
2023-05-12T13:40:00.498Z,2.10
2023-05-12T13:42:27.420Z,2.30
2023-05-12T13:44:54.199Z,2.50
2023-05-12T13:47:21.175Z,2.30
2023-05-12T13:49:48.155Z,2.00
2023-05-12T13:52:15.612Z,2.50
2023-05-12T13:54:42.435Z,2.40
2023-05-12T13:57:09.290Z,2.00
2023-05-12T13:59:36.339Z,2.10
2023-05-12T14:02:03.256Z,2.30
2023-05-12T14:04:30.435Z,3.10
2023-05-12T14:06:57.690Z,3.60
2023-05-12T14:09:25.004Z,2.40
2023-05-12T14:11:52.079Z,2.60
2023-05-12T14:14:18.865Z,2.40
2023-05-12T14:16:45.897Z,1.90
2023-05-12T14:19:12.826Z,2.70
2023-05-12T14:21:41.380Z,1.90
2023-05-12T14:24:09.180Z,2.10
2023-05-12T14:26:36.093Z,2.20
2023-05-12T14:29:03.069Z,2.20
2023-05-12T14:31:30.444Z,2.20
2023-05-12T14:33:57.393Z,1.80
2023-05-12T14:36:24.202Z,2.00
2023-05-12T14:38:50.951Z,2.20
2023-05-12T14:41:17.783Z,2.10
2023-05-12T14:43:44.734Z,2.40
2023-05-12T14:46:12.068Z,2.00
2023-05-12T14:48:39.234Z,2.40
2023-05-12T14:51:06.024Z,2.00
2023-05-12T14:53:33.088Z,2.30
2023-05-12T14:55:59.957Z,2.10
2023-05-12T14:58:27.125Z,2.20
2023-05-12T15:00:54.044Z,2.30
2023-05-12T15:03:21.283Z,2.40
2023-05-12T15:08:21.684Z,1.90
2023-05-12T15:10:48.702Z,2.00
2023-05-12T15:13:17.829Z,1.90
2023-05-12T15:15:45.000Z,2.00
2023-05-12T15:18:11.846Z,2.30
2023-05-12T15:20:38.837Z,2.10
2023-05-12T15:23:05.844Z,1.90
2023-05-12T15:25:33.055Z,2.10
2023-05-12T15:27:59.860Z,2.20
2023-05-12T15:30:26.727Z,2.30
2023-05-12T15:32:53.660Z,2.30
2023-05-12T15:35:20.674Z,3.00
2023-05-12T15:37:47.650Z,2.40
2023-05-12T15:40:14.815Z,2.70
2023-05-12T15:42:41.600Z,2.90
2023-05-12T15:45:09.732Z,3.20
2023-05-12T15:47:36.872Z,3.90
2023-05-12T15:50:04.517Z,3.10
2023-05-12T15:52:31.395Z,2.70
2023-05-12T15:54:58.307Z,2.50
2023-05-12T15:57:25.004Z,2.60
2023-05-12T15:59:57.669Z,2.60
2023-05-12T16:02:24.730Z,3.20
2023-05-12T16:04:51.682Z,2.80
2023-05-12T16:07:18.504Z,2.30
2023-05-12T16:09:45.603Z,2.50
2023-05-12T16:12:12.379Z,3.00
2023-05-12T16:14:39.298Z,2.70
2023-05-12T16:17:06.023Z,2.30
2023-05-12T16:19:32.759Z,2.60
2023-05-12T16:22:00.431Z,2.70
2023-05-12T16:24:28.803Z,2.70
2023-05-12T16:26:56.285Z,2.40
2023-05-12T16:29:22.988Z,3.00
2023-05-12T16:31:49.946Z,3.60
2023-05-12T16:34:16.850Z,2.60
2023-05-12T16:36:44.224Z,2.90
2023-05-12T16:39:11.104Z,3.30
2023-05-12T16:41:37.882Z,2.70
2023-05-12T16:44:05.210Z,2.80
2023-05-12T16:46:32.847Z,3.10
2023-05-12T16:48:59.963Z,2.70
2023-05-12T16:51:30.471Z,2.60
2023-05-12T16:53:57.854Z,2.40
2023-05-12T16:56:25.964Z,2.50
2023-05-12T16:58:52.940Z,2.40
2023-05-12T17:01:19.748Z,2.60
2023-05-12T17:03:46.997Z,3.00
2023-05-12T17:06:13.918Z,2.80
2023-05-12T17:08:41.349Z,2.60
2023-05-12T17:11:08.370Z,2.70
2023-05-12T17:13:36.862Z,2.70
2023-05-12T17:16:04.371Z,3.00
2023-05-12T17:18:31.509Z,2.60
2023-05-12T17:20:58.923Z,2.60
2023-05-12T17:23:26.856Z,3.20
2023-05-12T17:25:54.341Z,2.90
2023-05-12T17:28:21.370Z,2.70
2023-05-12T17:30:48.621Z,3.20
2023-05-12T17:33:16.518Z,2.70
2023-05-12T17:35:44.602Z,2.80
2023-05-12T17:38:16.270Z,3.20
2023-05-12T17:40:43.270Z,3.10
2023-05-12T17:43:09.960Z,2.90
2023-05-12T17:45:36.784Z,2.80
2023-05-12T17:48:04.165Z,3.00
2023-05-12T17:50:31.046Z,3.20
2023-05-12T17:52:58.194Z,2.80
2023-05-12T17:55:25.116Z,3.30
2023-05-12T17:57:52.053Z,3.80
2023-05-12T18:00:19.096Z,4.30
2023-05-12T18:02:46.278Z,4.30
2023-05-12T18:05:13.104Z,4.40
2023-05-12T18:07:40.134Z,4.30
2023-05-12T18:10:08.548Z,4.40
2023-05-12T18:12:36.141Z,5.10
2023-05-12T18:15:03.882Z,4.40
2023-05-12T18:17:30.741Z,3.80
2023-05-12T18:19:57.761Z,4.20
2023-05-12T18:22:24.567Z,3.90
2023-05-12T18:24:51.447Z,6.00
2023-05-12T18:27:18.163Z,5.20
2023-05-12T18:29:45.029Z,4.70
2023-05-12T18:32:11.789Z,3.80
2023-05-12T18:34:38.828Z,4.20
2023-05-12T18:37:08.884Z,4.60
2023-05-12T18:39:39.475Z,4.50
2023-05-12T18:42:08.164Z,3.90
2023-05-12T18:44:34.903Z,4.10
2023-05-12T18:47:01.709Z,4.20
2023-05-12T18:49:28.501Z,5.50
2023-05-12T18:51:55.281Z,5.30
2023-05-12T18:54:22.072Z,4.90
2023-05-12T18:56:50.825Z,5.20
2023-05-12T18:59:18.445Z,4.90
2023-05-12T19:01:45.401Z,5.90
2023-05-12T19:04:13.058Z,6.00
2023-05-12T19:06:39.800Z,5.70
2023-05-12T19:09:06.927Z,5.70
2023-05-12T19:11:33.687Z,5.20
2023-05-12T19:14:00.433Z,5.80
2023-05-12T19:16:31.935Z,6.00
2023-05-12T19:19:00.539Z,5.70
2023-05-12T19:21:27.920Z,5.60
2023-05-12T19:23:57.849Z,6.20
2023-05-12T19:26:24.704Z,7.40
2023-05-12T19:28:51.477Z,13.20
2023-05-12T19:31:18.217Z,12.10
2023-05-12T19:33:45.417Z,9.10
2023-05-12T19:36:12.350Z,9.50
2023-05-12T19:38:43.564Z,7.60
2023-05-12T19:41:10.999Z,9.30
2023-05-12T19:43:37.824Z,10.50
2023-05-12T19:49:10.482Z,10.40
2023-05-12T19:51:37.458Z,12.80
2023-05-12T19:54:06.495Z,14.30
2023-05-12T19:56:33.711Z,15.80
2023-05-12T19:59:00.778Z,14.90
2023-05-12T20:01:27.905Z,24.90
2023-05-12T20:03:54.798Z,24.50
2023-05-12T20:06:22.492Z,20.50
2023-05-12T20:08:49.503Z,25.20
2023-05-12T20:11:16.373Z,24.30
2023-05-12T20:13:43.203Z,22.30
2023-05-12T20:16:10.122Z,20.00
2023-05-12T20:18:36.930Z,19.40
2023-05-12T20:21:03.954Z,20.10
2023-05-12T20:23:30.690Z,19.70
2023-05-12T20:25:58.408Z,19.50
2023-05-12T20:28:25.504Z,18.90
2023-05-12T20:30:52.420Z,15.10
2023-05-12T20:33:19.323Z,16.10
2023-05-12T20:35:46.178Z,15.10
2023-05-12T20:38:13.726Z,8.80
2023-05-12T20:40:41.193Z,11.60
2023-05-12T20:43:08.034Z,9.90
2023-05-12T20:45:35.081Z,12.10
2023-05-12T20:48:02.513Z,14.80
2023-05-12T20:50:29.488Z,14.30
2023-05-12T20:52:56.325Z,13.90
2023-05-12T20:55:23.408Z,10.80
2023-05-12T20:57:50.632Z,8.50
2023-05-12T21:00:18.393Z,9.50
2023-05-12T21:02:45.679Z,9.50
2023-05-12T21:05:12.687Z,10.00
2023-05-12T21:07:39.648Z,9.70
2023-05-12T21:10:06.813Z,9.80
2023-05-12T21:12:34.260Z,10.30
2023-05-12T21:15:01.916Z,9.60
2023-05-12T21:17:28.657Z,9.40
2023-05-12T21:19:55.586Z,9.50
2023-05-12T21:22:22.335Z,9.60
2023-05-12T21:24:51.055Z,9.90
2023-05-12T21:27:18.677Z,9.90
2023-05-12T21:29:45.533Z,9.90
2023-05-12T21:32:12.360Z,10.20
2023-05-12T21:34:39.398Z,9.60
2023-05-12T21:37:06.444Z,10.30
2023-05-12T21:39:33.300Z,10.50
2023-05-12T21:42:00.260Z,10.50
2023-05-12T21:44:27.116Z,10.50
2023-05-12T21:46:54.036Z,10.40
2023-05-12T21:49:21.097Z,11.00
2023-05-12T21:51:48.028Z,10.00
2023-05-12T21:54:14.856Z,9.90
2023-05-12T21:56:41.605Z,9.50
2023-05-12T21:59:08.435Z,9.80
2023-05-12T22:01:35.250Z,9.30
2023-05-12T22:04:02.206Z,9.40
2023-05-12T22:06:29.167Z,9.20
2023-05-12T22:08:56.020Z,8.20
2023-05-12T22:11:23.367Z,8.70
2023-05-12T22:13:50.541Z,8.80
2023-05-12T22:16:18.549Z,8.80
2023-05-12T22:18:47.102Z,8.50
2023-05-12T22:21:14.050Z,9.10
2023-05-12T22:23:42.212Z,8.30
2023-05-12T22:26:09.758Z,8.60
2023-05-12T22:28:36.607Z,8.00
2023-05-12T22:31:03.558Z,8.40
2023-05-12T22:33:31.217Z,9.00
2023-05-12T22:35:59.291Z,8.70
2023-05-12T22:38:27.168Z,8.60
2023-05-12T22:40:54.089Z,9.10
2023-05-12T22:43:21.149Z,7.90
2023-05-12T22:45:52.101Z,8.50
2023-05-12T22:48:19.851Z,8.30
2023-05-12T22:50:46.898Z,8.00
2023-05-12T22:53:13.961Z,8.10
2023-05-12T22:55:41.087Z,9.50
2023-05-12T22:58:07.927Z,8.40
2023-05-12T23:00:34.684Z,8.70
2023-05-12T23:03:03.481Z,8.70
2023-05-12T23:05:30.512Z,8.60
2023-05-12T23:07:57.482Z,8.50
2023-05-12T23:10:24.496Z,8.70
2023-05-12T23:12:51.665Z,8.20
2023-05-12T23:15:18.589Z,8.10
2023-05-12T23:17:45.369Z,8.20
2023-05-12T23:20:12.687Z,8.80
2023-05-12T23:22:39.843Z,8.60
2023-05-12T23:25:07.426Z,8.30
2023-05-12T23:27:34.248Z,8.20
2023-05-12T23:30:01.078Z,8.20
2023-05-12T23:32:28.127Z,8.40
2023-05-12T23:34:55.085Z,8.40
2023-05-12T23:37:21.804Z,8.50
2023-05-12T23:39:48.759Z,9.00
2023-05-12T23:42:17.181Z,10.40
2023-05-12T23:44:44.010Z,10.70
2023-05-12T23:47:10.805Z,10.00
2023-05-12T23:49:37.681Z,10.20
2023-05-12T23:52:04.708Z,9.50
2023-05-12T23:54:31.478Z,9.90
2023-05-12T23:56:58.513Z,8.90
2023-05-12T23:59:25.542Z,9.10
